Time;durP1;ratioP1;P1;durP2;ratioP2;P2;SDS_P1;SDS_P2;PMS_P1;PMS_P2;Temp;Humidity;BMP_temperature;BMP_pressure;BME280_temperature;BME280_humidity;BME280_pressure;Samples;Min_cycle;Max_cycle;Signal;HPM_P1;HPM_P2
2022/09/09 00:00:19;;;;;;;10.88;7.20;;;15.60;99.90;;;;;;5050499;28;21343;-45
2022/09/09 00:02:54;;;;;;;10.02;6.70;;;15.70;99.90;;;;;;5049585;28;20483;-48
2022/09/09 00:05:47;;;;;;;10.95;6.90;;;15.70;99.90;;;;;;5050989;28;20472;-47
2022/09/09 00:08:20;;;;;;;7.57;6.10;;;15.70;99.90;;;;;;5049554;28;20510;-47
2022/09/09 00:10:53;;;;;;;8.77;7.00;;;15.60;99.90;;;;;;5039575;28;20042;-46
2022/09/09 00:13:24;;;;;;;11.52;6.78;;;15.70;99.90;;;;;;5043043;28;20056;-45
2022/09/09 00:16:18;;;;;;;9.43;7.07;;;15.70;99.90;;;;;;5050671;28;20045;-45
2022/09/09 00:19:15;;;;;;;9.80;7.32;;;15.70;99.90;;;;;;5050947;28;20468;-45
2022/09/09 00:21:57;;;;;;;10.63;6.97;;;15.70;99.90;;;;;;5050656;28;20076;-47
2022/09/09 00:24:43;;;;;;;11.15;7.43;;;15.60;99.90;;;;;;5050855;28;20037;-46
2022/09/09 00:27:41;;;;;;;11.18;7.85;;;15.60;99.90;;;;;;5050307;28;20079;-45
2022/09/09 00:30:13;;;;;;;12.27;7.85;;;15.60;99.90;;;;;;5050435;28;20040;-48
2022/09/09 00:32:40;;;;;;;11.85;8.23;;;15.60;99.90;;;;;;5049810;28;20072;-46
2022/09/09 00:35:32;;;;;;;12.15;7.75;;;15.60;99.90;;;;;;5050436;28;20432;-46
2022/09/09 00:38:03;;;;;;;9.25;8.07;;;15.50;99.90;;;;;;5049809;28;20111;-47
2022/09/09 00:40:35;;;;;;;13.30;9.27;;;15.50;99.90;;;;;;5050337;28;20127;-45
2022/09/09 00:43:30;;;;;;;14.02;9.55;;;15.70;99.90;;;;;;5049982;28;20045;-44
2022/09/09 00:46:26;;;;;;;12.60;9.88;;;15.60;99.90;;;;;;5049662;28;20169;-48
2022/09/09 00:49:22;;;;;;;10.82;9.35;;;15.70;99.90;;;;;;5050568;28;20493;-46
2022/09/09 00:52:13;;;;;;;11.70;9.55;;;15.50;99.90;;;;;;5050361;28;20072;-46
2022/09/09 00:55:05;;;;;;;13.45;9.73;;;15.50;99.90;;;;;;5050413;28;20083;-47
2022/09/09 00:57:33;;;;;;;13.48;8.98;;;15.60;99.90;;;;;;5049590;28;20041;-49
2022/09/09 01:00:18;;;;;;;16.73;8.95;;;15.50;99.90;;;;;;5050256;28;20057;-47
2022/09/09 01:02:59;;;;;;;11.77;8.73;;;15.50;99.90;;;;;;5049374;28;20051;-46
2022/09/09 01:05:46;;;;;;;13.32;9.15;;;15.60;99.90;;;;;;5050262;28;20186;-48
2022/09/09 01:08:42;;;;;;;11.52;8.52;;;15.40;99.90;;;;;;5048528;28;20051;-47
2022/09/09 01:11:16;;;;;;;11.90;8.35;;;15.60;99.90;;;;;;5050084;28;20041;-47
2022/09/09 01:13:46;;;;;;;12.30;8.13;;;15.40;99.90;;;;;;5049484;28;20057;-48
2022/09/09 01:16:12;;;;;;;12.48;8.23;;;15.60;99.90;;;;;;5049742;28;20107;-47
2022/09/09 01:18:45;;;;;;;13.65;7.88;;;15.60;99.90;;;;;;5050316;28;20087;-45
2022/09/09 01:21:45;;;;;;;10.37;6.80;;;15.50;99.90;;;;;;5049794;28;20098;-49
2022/09/09 01:24:25;;;;;;;10.20;7.18;;;15.40;99.90;;;;;;5049483;28;20053;-46
2022/09/09 01:26:56;;;;;;;11.00;7.57;;;15.50;99.90;;;;;;5048407;28;20059;-46
2022/09/09 01:29:23;;;;;;;11.07;7.30;;;15.60;99.90;;;;;;5049240;28;20048;-46
2022/09/09 01:32:01;;;;;;;11.98;6.47;;;15.40;99.90;;;;;;5048362;28;20151;-48
2022/09/09 01:34:33;;;;;;;11.30;7.45;;;15.50;99.90;;;;;;5048756;28;20391;-45
2022/09/09 01:37:17;;;;;;;8.93;7.47;;;15.50;99.90;;;;;;5049509;28;20052;-45
2022/09/09 01:39:44;;;;;;;8.77;6.88;;;15.50;99.90;;;;;;5050055;28;20041;-47
2022/09/09 01:42:14;;;;;;;11.23;7.55;;;15.30;99.90;;;;;;5049578;28;20072;-46
2022/09/09 01:44:40;;;;;;;11.85;7.05;;;15.40;99.90;;;;;;5049758;28;20077;-47
2022/09/09 01:47:06;;;;;;;9.23;7.07;;;15.30;99.90;;;;;;5048854;28;20073;-48
2022/09/09 01:49:35;;;;;;;14.13;7.30;;;15.20;99.90;;;;;;5049858;28;20044;-47
2022/09/09 01:52:01;;;;;;;12.13;7.40;;;15.30;99.90;;;;;;5049784;28;20124;-46
2022/09/09 01:54:31;;;;;;;10.25;6.88;;;15.40;99.90;;;;;;5049470;28;20558;-46
2022/09/09 01:57:09;;;;;;;9.95;6.40;;;15.40;99.90;;;;;;5051635;28;20052;-47
2022/09/09 02:00:06;;;;;;;10.27;6.15;;;15.20;99.90;;;;;;5053119;28;20089;-46
2022/09/09 02:02:44;;;;;;;9.52;6.40;;;15.20;99.90;;;;;;5053451;28;20052;-47
2022/09/09 02:05:15;;;;;;;13.40;7.05;;;15.20;99.90;;;;;;5053374;28;20036;-49
2022/09/09 02:07:46;;;;;;;11.70;7.03;;;15.30;99.90;;;;;;5053280;28;20045;-46
2022/09/09 02:10:21;;;;;;;10.10;6.90;;;15.40;99.90;;;;;;5053051;28;20269;-46
2022/09/09 02:13:04;;;;;;;12.88;7.35;;;15.40;99.90;;;;;;5051606;28;20060;-47
2022/09/09 02:15:35;;;;;;;9.65;7.00;;;15.30;99.90;;;;;;5033611;28;20061;-46
2022/09/09 02:18:06;;;;;;;13.00;8.18;;;15.30;99.90;;;;;;5052866;28;20029;-45
2022/09/09 02:20:33;;;;;;;10.15;7.82;;;15.40;99.90;;;;;;5053155;28;20439;-47
2022/09/09 02:23:00;;;;;;;10.63;8.15;;;15.30;99.90;;;;;;5053039;28;20495;-47
2022/09/09 02:25:29;;;;;;;11.23;7.60;;;15.30;99.90;;;;;;5052751;28;20479;-48
2022/09/09 02:27:58;;;;;;;11.40;7.72;;;15.20;99.90;;;;;;5052459;28;20135;-47
2022/09/09 02:30:24;;;;;;;9.18;7.80;;;15.30;99.90;;;;;;5052856;28;20037;-46
2022/09/09 02:32:52;;;;;;;11.82;8.10;;;15.30;99.90;;;;;;5052238;28;20044;-48
2022/09/09 02:35:22;;;;;;;13.85;8.02;;;15.40;99.90;;;;;;5034564;28;20036;-47
2022/09/09 02:37:49;;;;;;;12.50;8.10;;;15.10;99.90;;;;;;5052368;28;20041;-47
2022/09/09 02:40:16;;;;;;;11.95;8.55;;;15.10;99.90;;;;;;5052286;28;20115;-48
2022/09/09 02:42:43;;;;;;;10.20;7.50;;;15.40;99.90;;;;;;5052216;28;20055;-48
2022/09/09 02:45:11;;;;;;;10.43;7.85;;;15.30;99.90;;;;;;5052743;28;20041;-46
2022/09/09 02:48:22;;;;;;;11.10;8.10;;;15.20;99.90;;;;;;5048014;28;20101;-45
2022/09/09 02:51:12;;;;;;;12.15;7.90;;;15.20;99.90;;;;;;5047539;28;20056;-47
2022/09/09 02:54:05;;;;;;;10.32;7.75;;;15.20;99.90;;;;;;5052070;28;20506;-47
2022/09/09 02:56:37;;;;;;;9.88;7.72;;;15.20;99.90;;;;;;5051914;28;20055;-46
2022/09/09 02:59:04;;;;;;;10.48;6.93;;;15.30;99.90;;;;;;5034498;28;20041;-46
2022/09/09 03:01:31;;;;;;;10.95;7.22;;;15.30;99.90;;;;;;5052403;28;20047;-47
2022/09/09 03:03:57;;;;;;;9.20;7.18;;;15.10;99.90;;;;;;5051530;28;20399;-47
2022/09/09 03:06:22;;;;;;;8.85;7.40;;;15.20;99.90;;;;;;5052112;28;20090;-49
2022/09/09 03:08:49;;;;;;;11.25;7.88;;;15.20;99.90;;;;;;5051760;28;20061;-46
2022/09/09 03:11:16;;;;;;;8.93;6.93;;;15.30;99.90;;;;;;5052396;28;20047;-45
2022/09/09 03:13:42;;;;;;;9.02;6.88;;;15.30;99.90;;;;;;5051378;28;20053;-47
2022/09/09 03:16:07;;;;;;;9.38;6.97;;;15.00;99.90;;;;;;5051648;28;20059;-48
2022/09/09 03:18:34;;;;;;;11.77;7.35;;;15.00;99.90;;;;;;5051870;28;20044;-47
2022/09/09 03:21:00;;;;;;;9.73;7.07;;;15.00;99.90;;;;;;5034286;28;20054;-46
2022/09/09 03:23:26;;;;;;;9.48;6.93;;;14.90;99.90;;;;;;5051954;28;20059;-47
2022/09/09 03:25:53;;;;;;;8.80;6.95;;;15.00;99.90;;;;;;5051797;28;20139;-46
2022/09/09 03:28:20;;;;;;;9.25;6.85;;;14.90;99.90;;;;;;5038639;28;20037;-48
2022/09/09 03:30:46;;;;;;;9.32;7.20;;;15.00;99.90;;;;;;5051888;28;20092;-47
2022/09/09 03:33:12;;;;;;;10.02;6.97;;;14.80;99.90;;;;;;5051250;28;20163;-48
2022/09/09 03:35:39;;;;;;;10.13;6.97;;;15.00;99.90;;;;;;5051330;28;20065;-46
2022/09/09 03:38:04;;;;;;;10.57;7.05;;;14.90;99.90;;;;;;5051291;28;20487;-47
2022/09/09 03:40:30;;;;;;;9.73;7.50;;;14.90;99.90;;;;;;5051377;28;20053;-47
2022/09/09 03:42:56;;;;;;;8.98;6.93;;;14.80;99.90;;;;;;5052015;28;20136;-46
2022/09/09 03:45:22;;;;;;;11.10;7.55;;;14.60;99.90;;;;;;5049637;28;20457;-48
2022/09/09 03:47:47;;;;;;;10.48;7.63;;;14.60;99.90;;;;;;5051182;28;20044;-47
2022/09/09 03:50:13;;;;;;;9.10;7.00;;;14.60;99.90;;;;;;5051053;28;20063;-46
2022/09/09 03:52:41;;;;;;;8.75;7.03;;;14.50;99.90;;;;;;5051033;28;20391;-47
2022/09/09 03:55:07;;;;;;;10.05;7.82;;;14.70;99.90;;;;;;5051086;28;20039;-49
2022/09/09 03:57:35;;;;;;;10.98;7.40;;;14.50;99.90;;;;;;5051044;28;20043;-46
2022/09/09 04:00:06;;;;;;;12.02;8.15;;;14.60;99.90;;;;;;5050955;28;20045;-45
2022/09/09 04:02:32;;;;;;;10.73;7.88;;;14.70;99.90;;;;;;5051126;28;20048;-50
2022/09/09 04:04:59;;;;;;;12.50;8.15;;;14.60;99.90;;;;;;5050340;28;20041;-48
2022/09/09 04:07:27;;;;;;;12.07;7.80;;;14.50;99.90;;;;;;5050703;28;20090;-46
2022/09/09 04:09:54;;;;;;;11.23;7.30;;;14.40;99.90;;;;;;5050808;28;20116;-47
2022/09/09 04:12:20;;;;;;;10.93;8.30;;;14.40;99.90;;;;;;5050851;28;20411;-46
2022/09/09 04:14:46;;;;;;;11.48;8.48;;;14.40;99.90;;;;;;5051025;28;20553;-45
2022/09/09 04:17:12;;;;;;;12.02;8.38;;;14.40;99.90;;;;;;5050493;28;20033;-47
2022/09/09 04:19:37;;;;;;;10.15;8.07;;;14.40;99.90;;;;;;5050411;28;20076;-45
2022/09/09 04:22:04;;;;;;;10.00;7.70;;;14.30;99.90;;;;;;5050445;28;20118;-48
2022/09/09 04:24:29;;;;;;;10.50;7.85;;;14.40;99.90;;;;;;5050632;28;20073;-46
2022/09/09 04:26:55;;;;;;;12.75;8.60;;;14.40;99.90;;;;;;5050247;28;20529;-46
2022/09/09 04:29:21;;;;;;;11.10;8.15;;;14.50;99.90;;;;;;5050338;28;20102;-45
2022/09/09 04:31:46;;;;;;;11.20;8.27;;;14.30;99.90;;;;;;5050610;28;20112;-48
2022/09/09 04:34:12;;;;;;;11.90;8.50;;;14.50;99.90;;;;;;5050387;28;20037;-46
2022/09/09 04:36:39;;;;;;;13.23;8.75;;;14.30;99.90;;;;;;5049756;28;20086;-48
2022/09/09 04:39:05;;;;;;;12.40;8.93;;;14.50;99.90;;;;;;5016130;28;20051;-50
2022/09/09 04:41:31;;;;;;;14.43;9.13;;;14.30;99.90;;;;;;5050129;28;20037;-49
2022/09/09 04:43:57;;;;;;;15.43;10.30;;;14.30;99.90;;;;;;5050788;28;20567;-49
2022/09/09 04:46:23;;;;;;;15.07;9.88;;;14.50;99.90;;;;;;5050068;28;20087;-49
2022/09/09 04:48:50;;;;;;;15.15;10.35;;;14.20;99.90;;;;;;5050402;28;20582;-48
2022/09/09 04:51:15;;;;;;;14.25;10.73;;;14.40;99.90;;;;;;5050128;28;20388;-45
2022/09/09 04:53:41;;;;;;;15.93;11.23;;;14.40;99.90;;;;;;5050337;28;20037;-49
2022/09/09 04:56:10;;;;;;;15.18;11.65;;;14.50;99.90;;;;;;5049878;28;20041;-46
2022/09/09 04:58:37;;;;;;;17.35;10.95;;;14.50;99.90;;;;;;5050291;28;20052;-50
2022/09/09 05:01:05;;;;;;;14.50;10.98;;;14.40;99.90;;;;;;5050124;28;20071;-50
2022/09/09 05:03:30;;;;;;;14.18;10.95;;;14.40;99.90;;;;;;5049815;28;20103;-46
2022/09/09 05:06:12;;;;;;;15.75;11.60;;;14.30;99.90;;;;;;5048313;28;20171;-49
2022/09/09 05:08:39;;;;;;;16.05;12.25;;;14.10;99.90;;;;;;5050120;28;20178;-47
2022/09/09 05:11:18;;;;;;;12.98;10.95;;;14.20;99.90;;;;;;5049821;28;20037;-47
2022/09/09 05:13:44;;;;;;;14.65;11.50;;;14.20;99.90;;;;;;5049565;28;20045;-45
2022/09/09 05:16:11;;;;;;;14.55;11.38;;;14.30;99.90;;;;;;5049543;28;20045;-45
2022/09/09 05:18:40;;;;;;;17.90;11.95;;;14.30;99.90;;;;;;5050366;28;20037;-45
2022/09/09 05:21:07;;;;;;;15.90;11.65;;;14.30;99.90;;;;;;5050091;28;20037;-46
2022/09/09 05:23:33;;;;;;;14.98;12.75;;;14.10;99.90;;;;;;5049750;28;20045;-48
2022/09/09 05:25:59;;;;;;;16.95;11.93;;;14.40;99.90;;;;;;5049998;28;20116;-46
2022/09/09 05:28:26;;;;;;;14.60;11.75;;;14.30;99.90;;;;;;5049495;28;20041;-47
2022/09/09 05:31:00;;;;;;;15.50;11.80;;;14.30;99.90;;;;;;5050558;28;20092;-48
2022/09/09 05:33:26;;;;;;;;;;;14.10;99.90;;;;;;5053866;28;20040;-49
2022/09/09 05:36:07;;;;;;;13.90;11.25;;;14.30;99.90;;;;;;5053760;28;19931;-47
2022/09/09 05:38:34;;;;;;;13.80;10.80;;;14.10;99.90;;;;;;5053728;28;20108;-50
2022/09/09 05:41:02;;;;;;;13.77;11.43;;;14.00;99.90;;;;;;5053791;28;20037;-46
2022/09/09 05:43:28;;;;;;;14.30;11.07;;;14.10;99.90;;;;;;5053675;28;20656;-47
2022/09/09 05:46:04;;;;;;;12.07;10.20;;;14.00;99.90;;;;;;5053850;28;20078;-48
2022/09/09 05:48:31;;;;;;;12.90;10.63;;;14.30;99.90;;;;;;5053639;28;20041;-49
2022/09/09 05:50:57;;;;;;;13.13;10.60;;;14.30;99.90;;;;;;5053378;28;20515;-47
2022/09/09 05:53:22;;;;;;;13.30;10.23;;;14.30;99.90;;;;;;5053605;28;20127;-46
2022/09/09 05:55:48;;;;;;;12.95;10.65;;;14.10;99.90;;;;;;5053041;28;20041;-46
2022/09/09 05:58:17;;;;;;;13.70;9.50;;;14.10;99.90;;;;;;5053491;28;20106;-48
2022/09/09 06:00:43;;;;;;;12.23;10.25;;;14.30;99.90;;;;;;5053327;28;20064;-49
2022/09/09 06:03:12;;;;;;;12.40;10.50;;;14.30;99.90;;;;;;5052851;28;20510;-45
2022/09/09 06:05:38;;;;;;;13.13;9.80;;;14.50;99.90;;;;;;5053518;28;20510;-49
2022/09/09 06:08:04;;;;;;;13.55;10.23;;;14.30;99.90;;;;;;5052629;28;20098;-49
2022/09/09 06:10:29;;;;;;;12.90;9.70;;;14.40;99.90;;;;;;5053359;28;20067;-47
2022/09/09 06:12:55;;;;;;;12.05;9.63;;;14.10;99.90;;;;;;5052687;28;20056;-49
2022/09/09 06:15:21;;;;;;;11.40;9.63;;;14.20;99.90;;;;;;5053312;28;20041;-49
2022/09/09 06:17:47;;;;;;;13.90;9.57;;;14.50;99.90;;;;;;5052579;28;20486;-49
2022/09/09 06:20:13;;;;;;;11.77;9.48;;;14.50;99.90;;;;;;5052994;28;20125;-47
2022/09/09 06:22:40;;;;;;;10.88;9.63;;;14.40;99.90;;;;;;5051013;28;20112;-47
2022/09/09 06:25:08;;;;;;;13.63;10.15;;;14.50;99.90;;;;;;5052664;28;20029;-47
2022/09/09 06:27:34;;;;;;;12.98;9.63;;;14.30;99.90;;;;;;5052135;28;20064;-46
2022/09/09 06:29:59;;;;;;;13.57;10.40;;;14.60;99.90;;;;;;5053444;28;20079;-48
2022/09/09 06:32:26;;;;;;;12.18;9.80;;;14.60;99.90;;;;;;5052495;28;20040;-47
2022/09/09 06:34:52;;;;;;;12.70;10.50;;;14.80;99.90;;;;;;5052282;28;20076;-46
2022/09/09 06:37:18;;;;;;;13.65;10.07;;;14.80;99.90;;;;;;5052618;28;20072;-45
2022/09/09 06:39:44;;;;;;;12.18;9.00;;;14.70;99.90;;;;;;5052490;28;20045;-47
2022/09/09 06:42:09;;;;;;;10.45;8.80;;;14.60;99.90;;;;;;5052210;28;21317;-47
2022/09/09 06:44:36;;;;;;;13.73;9.15;;;14.50;99.90;;;;;;5034681;28;20048;-45
2022/09/09 06:47:01;;;;;;;13.57;9.93;;;14.70;99.90;;;;;;5052170;28;20059;-49
2022/09/09 06:49:27;;;;;;;13.82;9.40;;;14.70;99.90;;;;;;5052329;28;20045;-47
2022/09/09 06:51:53;;;;;;;14.32;8.82;;;14.50;99.90;;;;;;5043293;28;20392;-44
2022/09/09 06:54:20;;;;;;;12.55;9.68;;;14.70;99.90;;;;;;5052656;28;20047;-49
2022/09/09 06:56:45;;;;;;;12.93;10.38;;;14.70;99.90;;;;;;5051873;28;20036;-47
2022/09/09 06:59:11;;;;;;;12.57;9.48;;;14.70;99.90;;;;;;5052510;28;20106;-47
2022/09/09 07:01:51;;;;;;;16.30;10.38;;;14.80;99.90;;;;;;5035170;28;20027;-45
2022/09/09 07:04:17;;;;;;;14.00;8.63;;;15.00;99.90;;;;;;5051849;28;20040;-47
2022/09/09 07:06:46;;;;;;;13.13;8.98;;;14.80;99.90;;;;;;5033341;28;20099;-47
2022/09/09 07:09:14;;;;;;;14.13;8.80;;;15.00;99.90;;;;;;5052187;28;20036;-45
2022/09/09 07:11:50;;;;;;;9.80;8.45;;;15.00;99.90;;;;;;5051751;28;20033;-45
2022/09/09 07:14:16;;;;;;;12.75;8.50;;;15.00;99.90;;;;;;5039460;28;20040;-47
2022/09/09 07:16:43;;;;;;;15.45;8.25;;;15.20;99.90;;;;;;5042248;28;20037;-46
2022/09/09 07:19:10;;;;;;;13.40;8.52;;;15.20;99.90;;;;;;5048651;28;20044;-50
2022/09/09 07:21:36;;;;;;;13.63;8.23;;;15.20;99.90;;;;;;5049371;28;20041;-47
2022/09/09 07:24:02;;;;;;;12.43;8.02;;;15.00;99.90;;;;;;5049078;28;20083;-49
2022/09/09 07:26:30;;;;;;;9.55;7.43;;;15.20;99.90;;;;;;5029545;28;20517;-49
2022/09/09 07:28:57;;;;;;;13.90;8.35;;;15.20;99.90;;;;;;5049185;28;20044;-47
2022/09/09 07:31:35;;;;;;;14.77;8.00;;;15.10;99.90;;;;;;5047523;28;20041;-46
2022/09/09 07:34:02;;;;;;;12.93;8.02;;;15.30;99.90;;;;;;5047968;28;20040;-48
2022/09/09 07:36:29;;;;;;;12.02;8.35;;;15.30;99.90;;;;;;5047947;28;20087;-46
2022/09/09 07:38:57;;;;;;;11.68;8.07;;;15.20;99.90;;;;;;5029648;28;20120;-46
2022/09/09 07:41:39;;;;;;;11.73;8.25;;;15.20;99.90;;;;;;5048291;28;20041;-45
2022/09/09 07:44:08;;;;;;;13.73;8.95;;;15.20;99.90;;;;;;5042901;28;20048;-49
2022/09/09 07:46:34;;;;;;;11.85;8.40;;;15.40;99.90;;;;;;5026699;28;20076;-46
2022/09/09 07:49:00;;;;;;;13.13;8.00;;;15.30;99.90;;;;;;5043385;28;20047;-46
2022/09/09 07:51:29;;;;;;;11.73;8.20;;;15.30;99.90;;;;;;5011246;28;20045;-46
2022/09/09 07:53:58;;;;;;;13.85;8.73;;;15.50;99.90;;;;;;5042100;28;20033;-45
2022/09/09 07:56:25;;;;;;;12.23;7.55;;;15.60;99.90;;;;;;5042861;28;20025;-48
2022/09/09 07:58:53;;;;;;;16.05;8.15;;;15.60;99.90;;;;;;5041036;28;20041;-45
2022/09/09 08:01:37;;;;;;;13.23;8.50;;;15.80;99.90;;;;;;5042654;28;20041;-49
2022/09/09 08:04:05;;;;;;;12.80;8.13;;;15.90;99.90;;;;;;5047075;28;20119;-48
2022/09/09 08:06:35;;;;;;;14.38;7.65;;;16.00;99.90;;;;;;5049543;28;20036;-47
2022/09/09 08:09:00;;;;;;;12.98;7.43;;;16.20;99.90;;;;;;5047364;28;20108;-50
2022/09/09 08:11:28;;;;;;;13.05;6.85;;;16.20;99.90;;;;;;5049447;28;20571;-49
2022/09/09 08:13:55;;;;;;;12.80;7.43;;;16.30;99.90;;;;;;5051556;28;20083;-51
2022/09/09 08:16:27;;;;;;;11.20;6.88;;;16.40;99.90;;;;;;5048004;28;20041;-49
2022/09/09 08:18:54;;;;;;;13.27;7.07;;;16.40;99.90;;;;;;5047976;28;20605;-49
2022/09/09 08:21:26;;;;;;;11.00;6.60;;;16.60;99.90;;;;;;5046753;28;20036;-48
2022/09/09 08:23:53;;;;;;;12.73;6.55;;;16.60;99.90;;;;;;5051293;28;20041;-50
2022/09/09 08:26:31;;;;;;;14.30;6.18;;;16.90;99.90;;;;;;5050281;28;20048;-49
2022/09/09 08:28:58;;;;;;;13.05;6.20;;;16.90;99.90;;;;;;5032015;28;20044;-47
2022/09/09 08:31:27;;;;;;;11.02;5.30;;;16.90;99.90;;;;;;5048743;28;20044;-48
2022/09/09 08:33:53;;;;;;;9.45;6.00;;;16.90;99.90;;;;;;5048186;28;20032;-46
2022/09/09 08:36:22;;;;;;;13.73;5.40;;;16.90;99.90;;;;;;5030703;28;20039;-47
2022/09/09 08:38:50;;;;;;;13.85;5.93;;;17.00;99.90;;;;;;5032342;28;20464;-49
2022/09/09 08:41:30;;;;;;;11.75;5.63;;;17.10;99.90;;;;;;5043874;28;20036;-51
2022/09/09 08:44:21;;;;;;;13.80;5.60;;;17.00;99.90;;;;;;5044794;28;20048;-48
2022/09/09 08:47:24;;;;;;;11.63;5.38;;;17.10;99.90;;;;;;5045341;28;20049;-47
2022/09/09 08:49:50;;;;;;;9.88;5.43;;;17.00;99.90;;;;;;5041257;28;20511;-47
2022/09/09 08:52:28;;;;;;;11.20;4.75;;;17.10;99.90;;;;;;5037464;28;20048;-45
2022/09/09 08:55:17;;;;;;;11.52;5.18;;;17.20;99.90;;;;;;5039590;28;20114;-48
2022/09/09 08:57:45;;;;;;;10.30;4.70;;;17.20;99.90;;;;;;5025583;28;20496;-48
2022/09/09 09:00:11;;;;;;;9.13;4.95;;;17.10;99.90;;;;;;5045035;28;20047;-50
2022/09/09 09:03:16;;;;;;;8.40;4.43;;;17.10;99.90;;;;;;5047439;28;20047;-48
2022/09/09 09:05:52;;;;;;;10.30;4.72;;;17.30;99.90;;;;;;5049324;28;20079;-47
2022/09/09 09:08:30;;;;;;;8.88;4.13;;;17.10;99.90;;;;;;5045620;28;20079;-51
2022/09/09 09:11:00;;;;;;;10.32;3.75;;;17.20;99.90;;;;;;5046716;28;20381;-48
2022/09/09 09:13:34;;;;;;;14.20;3.90;;;17.20;99.90;;;;;;5031100;28;20052;-48
2022/09/09 09:16:25;;;;;;;9.57;3.53;;;17.20;99.90;;;;;;5046923;28;20045;-46
2022/09/09 09:18:52;;;;;;;11.77;3.70;;;17.30;99.90;;;;;;5046593;28;20040;-47
2022/09/09 09:21:35;;;;;;;11.50;3.80;;;17.30;99.90;;;;;;5049572;28;20081;-48
2022/09/09 09:24:01;;;;;;;8.20;3.08;;;17.40;99.90;;;;;;5048121;28;20044;-47
2022/09/09 09:26:32;;;;;;;11.88;3.38;;;17.30;99.90;;;;;;5045350;28;20433;-47
2022/09/09 09:28:59;;;;;;;8.15;3.20;;;17.40;99.90;;;;;;5045105;28;20037;-47
2022/09/09 09:31:26;;;;;;;8.90;3.00;;;17.70;99.90;;;;;;5049379;28;20521;-52
2022/09/09 09:33:56;;;;;;;8.55;3.10;;;18.00;99.90;;;;;;5047231;28;20040;-46
2022/09/09 09:36:45;;;;;;;12.63;3.55;;;18.10;99.90;;;;;;5030894;28;20041;-50
2022/09/09 09:39:29;;;;;;;14.52;3.30;;;18.10;99.90;;;;;;5044634;28;20040;-45
2022/09/09 09:41:55;;;;;;;11.27;2.90;;;17.90;99.90;;;;;;5045829;28;20080;-48
2022/09/09 09:44:25;;;;;;;8.43;2.83;;;17.90;99.90;;;;;;5046074;28;20492;-49
2022/09/09 09:46:51;;;;;;;8.40;2.65;;;17.90;99.90;;;;;;5045841;28;20070;-48
2022/09/09 09:49:17;;;;;;;13.60;2.97;;;17.90;99.90;;;;;;5027954;28;20067;-46
2022/09/09 09:51:43;;;;;;;7.68;2.47;;;17.90;99.90;;;;;;5047699;28;20037;-46
2022/09/09 09:54:30;;;;;;;9.15;2.47;;;17.80;99.90;;;;;;5047194;28;20037;-49
2022/09/09 09:56:56;;;;;;;9.73;2.63;;;17.80;99.90;;;;;;5046983;28;20064;-48
2022/09/09 09:59:28;;;;;;;10.95;2.97;;;17.70;99.90;;;;;;5045008;28;20178;-46
2022/09/09 10:01:53;;;;;;;8.48;2.72;;;17.80;99.90;;;;;;5040868;28;20045;-48
2022/09/09 10:04:23;;;;;;;9.80;2.50;;;17.80;99.90;;;;;;5041501;28;20498;-48
2022/09/09 10:06:50;;;;;;;8.50;2.85;;;17.80;99.90;;;;;;5041698;28;20032;-46
2022/09/09 10:09:21;;;;;;;7.85;2.78;;;17.80;99.90;;;;;;5045229;28;20187;-49
2022/09/09 10:12:03;;;;;;;7.45;2.85;;;17.70;99.90;;;;;;5046300;28;20047;-48
2022/09/09 10:14:45;;;;;;;9.70;3.10;;;17.70;99.90;;;;;;5028438;28;20053;-50
2022/09/09 10:17:19;;;;;;;9.40;3.00;;;17.70;99.90;;;;;;5043845;28;20037;-48
2022/09/09 10:20:30;;;;;;;7.68;2.97;;;17.60;99.90;;;;;;5052338;28;20071;-46
2022/09/09 10:23:25;;;;;;;6.65;2.60;;;17.60;99.90;;;;;;5027190;28;20315;-46
2022/09/09 10:26:06;;;;;;;7.85;2.63;;;17.90;99.90;;;;;;5048989;28;20040;-45
2022/09/09 10:28:54;;;;;;;7.00;2.70;;;17.70;99.90;;;;;;5051629;28;20117;-47
2022/09/09 10:31:31;;;;;;;8.60;2.40;;;17.70;99.90;;;;;;5048292;28;20045;-49
2022/09/09 10:34:13;;;;;;;11.27;2.58;;;17.70;99.90;;;;;;5048997;28;20047;-51
2022/09/09 10:36:46;;;;;;;12.48;2.78;;;17.70;99.90;;;;;;5044298;28;20483;-45
2022/09/09 10:39:23;;;;;;;8.02;2.40;;;17.70;99.90;;;;;;5042719;28;20037;-47
2022/09/09 10:42:12;;;;;;;12.68;2.60;;;17.80;99.90;;;;;;5037946;28;20068;-48
2022/09/09 10:44:56;;;;;;;8.45;2.33;;;17.80;99.90;;;;;;5039471;28;20475;-48
2022/09/09 10:47:38;;;;;;;9.45;2.42;;;17.80;99.90;;;;;;5035659;28;20052;-47
2022/09/09 10:50:13;;;;;;;7.15;2.30;;;17.70;99.90;;;;;;5026307;28;20080;-47
2022/09/09 10:53:14;;;;;;;8.38;2.65;;;17.70;99.90;;;;;;5042586;28;20479;-48
2022/09/09 10:55:43;;;;;;;6.82;2.58;;;17.80;99.90;;;;;;5016716;28;20392;-46
2022/09/09 10:58:18;;;;;;;10.35;2.67;;;17.70;99.90;;;;;;5049205;28;20497;-50
2022/09/09 11:01:02;;;;;;;7.78;2.10;;;17.80;99.90;;;;;;5048374;28;20048;-50
2022/09/09 11:03:29;;;;;;;7.43;2.45;;;17.80;99.90;;;;;;5046780;28;20060;-48
2022/09/09 11:06:04;;;;;;;9.60;2.60;;;18.00;99.90;;;;;;5050506;28;20473;-47
2022/09/09 11:08:34;;;;;;;6.70;1.85;;;17.90;99.90;;;;;;5051361;28;20387;-47
2022/09/09 11:11:12;;;;;;;8.20;2.40;;;18.10;99.90;;;;;;5044195;28;20048;-47
2022/09/09 11:13:54;;;;;;;7.93;2.40;;;18.20;99.90;;;;;;5043880;28;20087;-47
2022/09/09 11:16:41;;;;;;;8.15;2.50;;;18.40;99.90;;;;;;5045799;28;20021;-48
2022/09/09 11:19:37;;;;;;;9.27;2.55;;;18.40;99.90;;;;;;5045897;28;20056;-46
2022/09/09 11:22:14;;;;;;;8.18;2.40;;;18.50;99.90;;;;;;5048312;28;20052;-46
2022/09/09 11:24:45;;;;;;;7.47;2.35;;;18.50;99.90;;;;;;5046091;28;20064;-47
2022/09/09 11:27:42;;;;;;;10.20;2.50;;;18.80;99.90;;;;;;5041656;28;21661;-46
2022/09/09 11:30:17;;;;;;;12.57;1.95;;;19.10;99.90;;;;;;5039383;28;20047;-46
2022/09/09 11:33:02;;;;;;;8.93;2.30;;;19.60;99.90;;;;;;5024564;28;20036;-48
2022/09/09 11:35:47;;;;;;;5.65;1.77;;;19.70;99.90;;;;;;5042139;28;20147;-49
2022/09/09 11:38:35;;;;;;;7.95;1.75;;;19.70;99.90;;;;;;5039412;28;20718;-49
2022/09/09 11:41:07;;;;;;;12.15;2.08;;;19.60;99.90;;;;;;5041869;28;20499;-51
2022/09/09 11:44:02;;;;;;;15.50;4.20;;;19.60;99.90;;;;;;5044240;28;20036;-48
2022/09/09 11:46:37;;;;;;;16.17;4.88;;;19.40;99.90;;;;;;5046687;28;20041;-49
2022/09/09 11:49:06;;;;;;;10.07;3.08;;;19.30;99.90;;;;;;5041826;28;20123;-46
2022/09/09 11:51:35;;;;;;;10.35;2.50;;;19.20;99.90;;;;;;5044081;28;20049;-50
2022/09/09 11:54:22;;;;;;;6.03;1.70;;;19.10;99.90;;;;;;5048998;28;20049;-48
2022/09/09 11:56:48;;;;;;;9.07;2.75;;;19.00;99.90;;;;;;5049132;28;20563;-47
2022/09/09 11:59:51;;;;;;;7.68;2.10;;;18.90;99.90;;;;;;5049344;28;20127;-46
2022/09/09 12:02:24;;;;;;;6.00;1.73;;;18.80;99.90;;;;;;5049403;28;20531;-47
2022/09/09 12:04:55;;;;;;;7.20;1.63;;;18.70;99.90;;;;;;5047752;28;20029;-49
2022/09/09 12:07:34;;;;;;;9.57;1.73;;;18.50;99.90;;;;;;5049030;28;20037;-46
2022/09/09 12:10:17;;;;;;;6.18;1.80;;;18.50;99.90;;;;;;5051349;28;20048;-49
2022/09/09 12:12:43;;;;;;;7.10;2.28;;;18.90;99.90;;;;;;5050713;28;20399;-48
2022/09/09 12:15:09;;;;;;;5.60;1.48;;;19.60;99.90;;;;;;5051570;28;20051;-49
2022/09/09 12:17:50;;;;;;;6.28;1.83;;;20.00;99.90;;;;;;5049689;28;20377;-48
2022/09/09 12:20:19;;;;;;;6.00;1.58;;;20.10;99.90;;;;;;5050171;28;20044;-49
2022/09/09 12:22:56;;;;;;;7.75;2.00;;;20.10;99.90;;;;;;5050525;28;20052;-47
2022/09/09 12:25:40;;;;;;;7.10;1.83;;;20.00;99.90;;;;;;5051012;28;20063;-49
2022/09/09 12:28:18;;;;;;;7.47;1.75;;;19.80;99.90;;;;;;5051294;28;20044;-47
2022/09/09 12:30:47;;;;;;;7.50;2.00;;;19.80;99.90;;;;;;5050916;28;20429;-48
2022/09/09 12:33:16;;;;;;;7.55;1.85;;;19.70;99.90;;;;;;5051415;28;20044;-48
2022/09/09 12:35:45;;;;;;;6.53;1.60;;;19.90;99.90;;;;;;5051031;28;20124;-48
2022/09/09 12:38:28;;;;;;;6.47;1.63;;;19.70;99.90;;;;;;5049928;28;20033;-48
2022/09/09 12:40:56;;;;;;;8.85;1.50;;;19.70;99.90;;;;;;5035278;28;20429;-47
2022/09/09 12:43:24;;;;;;;6.43;1.70;;;19.50;99.90;;;;;;5050360;28;20089;-46
2022/09/09 12:45:57;;;;;;;6.00;1.63;;;19.20;99.90;;;;;;5034772;28;20120;-47
2022/09/09 12:48:36;;;;;;;5.70;1.70;;;18.90;99.90;;;;;;5050185;28;20090;-46
2022/09/09 12:51:05;;;;;;;5.88;1.70;;;18.80;99.90;;;;;;5048928;28;20313;-46
2022/09/09 12:53:36;;;;;;;5.43;1.83;;;18.90;99.90;;;;;;5049862;28;20128;-47
2022/09/09 12:56:07;;;;;;;5.88;1.70;;;19.30;99.90;;;;;;5050206;28;20044;-48
2022/09/09 12:58:35;;;;;;;7.47;2.00;;;19.10;99.90;;;;;;5050480;28;20122;-51
2022/09/09 13:01:06;;;;;;;6.88;1.90;;;19.00;99.90;;;;;;5031004;28;20057;-46
2022/09/09 13:03:42;;;;;;;6.90;1.95;;;19.10;99.90;;;;;;5049664;28;20045;-47
2022/09/09 13:06:19;;;;;;;10.40;2.22;;;18.90;99.90;;;;;;5049541;28;20080;-49